Ana Sayfa
METAR-TAF:

METAR-TAF

Havaalanları :

Loei, Tayland

Enlem: 17-27N, Boylam: 101-44E, yükseklik: 253 m

Güncel hava durumu gözlemi

Rapor saat 01:00 UTC de 10 dakika önce yapıldı.
Rüzgar batıdan 2 kt
Sıcaklık 18°C
Nem 100%
Basınç 1016 hPa
Görüş mesafesi: 4000 m
3000 ft yükseklikte az bulutlu
Pus

METAR: VTUL 180100Z 26002KT 4000 BR FEW030 18/18 Q1016 NOSIG

Saat: 08:10 (01:10 UTC)

Tahmin

Rapor saat 23:00 UTC de 2 saat ve 10 dakika önce yapıldı.
Ayın 18'si saat 00 UTC'den ayın 18'si saat 24 UTC'ye kadar geçerli Tahmin
Rüzgar güney/güneydoğudan 3 kt
Görüş mesafesi: 3000 m
Pus
Dönüşüyor
ayın 18'si saat 02 UTC'den ayın 18'si saat 04 UTC'ye kadar
Görüş mesafesi: 7000 m

TAF: VTUL 172300Z 1800/1824 16003KT 3000 BR NSC BECMG 1802/1804 7000 NSW

4.000'den fazla havaalanı için hava durumu gözlemleri ve tahminleri (METAR ve TAF raporları).

Kullanılabilir istasyonlar harita üzerinde sarı ve kırmızı noktalarla gösterilir.

İstasyonun adını görmek için fareyi noktanın üzerinde gezdirin.

Sonrasında hava gözlem ve tahminlerini görmek için tıklayın.

Haritayı değiştirmek için: yaklaştırmak için siyah artı işaretli yeşil düğmeye ve uzaklaştırmak için de eksi işaretli düğmeye hızla tıklayın; bitişik haritalar için yeşil okları kullanın.


METAR-TAF: